Time;durP1;ratioP1;P1;durP2;ratioP2;P2;SDS_P1;SDS_P2;PMS_P1;PMS_P2;Temp;Humidity;BMP_temperature;BMP_pressure;BME280_temperature;BME280_humidity;BME280_pressure;Samples;Min_cycle;Max_cycle;Signal;HPM_P1;HPM_P2
2023/05/08 00:01:09;;;;;;;17.27;15.52;;;13.80;74.90;;;;;;5034083;28;20056;-67
2023/05/08 00:03:35;;;;;;;17.83;16.02;;;13.70;75.00;;;;;;5052195;28;20489;-67
2023/05/08 00:06:04;;;;;;;18.35;16.38;;;13.70;75.00;;;;;;5033512;28;20145;-67
2023/05/08 00:08:30;;;;;;;18.05;16.25;;;13.70;75.00;;;;;;5018392;28;20073;-67
2023/05/08 00:10:56;;;;;;;16.85;15.15;;;13.70;74.90;;;;;;5034277;28;20131;-67
2023/05/08 00:13:22;;;;;;;18.33;16.58;;;13.60;74.80;;;;;;5030944;28;20103;-67
2023/05/08 00:15:48;;;;;;;17.83;16.17;;;13.60;74.90;;;;;;5034169;28;20041;-67
2023/05/08 00:18:14;;;;;;;18.23;16.38;;;13.60;75.00;;;;;;5032472;28;20127;-67
2023/05/08 00:20:40;;;;;;;17.77;15.98;;;13.60;75.10;;;;;;5022777;28;20124;-67
2023/05/08 00:23:06;;;;;;;17.40;15.77;;;13.50;75.00;;;;;;5021253;28;20099;-67
2023/05/08 00:25:32;;;;;;;19.17;17.27;;;13.50;75.20;;;;;;5055624;28;20108;-67
2023/05/08 00:27:58;;;;;;;18.35;16.05;;;13.50;75.20;;;;;;5024917;28;20042;-67
2023/05/08 00:30:25;;;;;;;18.85;16.77;;;13.50;75.30;;;;;;5023301;28;20058;-67
2023/05/08 00:32:50;;;;;;;18.15;16.42;;;13.50;75.30;;;;;;5017874;28;20054;-67
2023/05/08 00:35:16;;;;;;;18.05;16.25;;;13.40;75.20;;;;;;5033737;28;20044;-67
2023/05/08 00:37:42;;;;;;;17.23;15.18;;;13.40;75.30;;;;;;5055420;28;20494;-67
2023/05/08 00:40:10;;;;;;;18.80;16.55;;;13.40;75.30;;;;;;5004619;28;20046;-67
2023/05/08 00:42:36;;;;;;;18.17;16.27;;;13.40;75.30;;;;;;5001849;28;20053;-67
2023/05/08 00:45:02;;;;;;;17.77;15.98;;;13.40;75.30;;;;;;5018131;28;20052;-67
2023/05/08 00:47:30;;;;;;;18.40;16.40;;;13.40;75.30;;;;;;5024694;28;20048;-67
2023/05/08 00:49:58;;;;;;;18.90;16.65;;;13.30;75.30;;;;;;5040309;28;20050;-67
2023/05/08 00:52:25;;;;;;;18.90;17.00;;;13.30;75.40;;;;;;5017556;28;20046;-67
2023/05/08 00:54:51;;;;;;;18.05;16.25;;;13.30;75.40;;;;;;5008397;28;20476;-67
2023/05/08 00:57:17;;;;;;;18.77;16.98;;;13.30;75.50;;;;;;5037600;28;20044;-67
2023/05/08 00:59:45;;;;;;;18.50;16.50;;;13.30;75.50;;;;;;5025517;28;20052;-67
2023/05/08 01:02:12;;;;;;;19.98;17.88;;;13.20;75.40;;;;;;5031345;28;20052;-67
2023/05/08 01:04:39;;;;;;;19.40;17.40;;;13.20;75.50;;;;;;5032011;28;20049;-67
2023/05/08 01:07:05;;;;;;;19.73;17.63;;;13.20;75.50;;;;;;5017787;28;20192;-67
2023/05/08 01:09:31;;;;;;;20.20;18.10;;;13.20;75.60;;;;;;5027891;28;20497;-67
2023/05/08 01:12:18;;;;;;;19.05;17.02;;;13.20;75.60;;;;;;5035319;28;20059;-67
2023/05/08 01:14:46;;;;;;;20.13;18.02;;;13.10;75.70;;;;;;5045633;28;20117;-67
2023/05/08 01:17:38;;;;;;;19.92;17.88;;;13.10;75.60;;;;;;5017683;28;20124;-67
2023/05/08 01:20:16;;;;;;;20.45;18.35;;;13.10;75.60;;;;;;5032103;28;20044;-67
2023/05/08 01:23:19;;;;;;;18.98;17.08;;;13.00;75.70;;;;;;5035284;28;20098;-67
2023/05/08 01:26:03;;;;;;;19.33;17.38;;;13.00;75.70;;;;;;5036863;28;20045;-67
2023/05/08 01:28:54;;;;;;;19.37;17.37;;;13.00;75.80;;;;;;5046835;28;20059;-67
2023/05/08 01:31:27;;;;;;;18.95;16.95;;;12.90;75.90;;;;;;5009847;28;20068;-67
2023/05/08 01:34:05;;;;;;;20.83;18.67;;;12.90;76.00;;;;;;5018104;28;20077;-67
2023/05/08 01:36:43;;;;;;;20.17;18.17;;;12.90;76.10;;;;;;5018442;28;20037;-67
2023/05/08 01:39:13;;;;;;;19.90;17.80;;;12.90;76.10;;;;;;5029290;28;20080;-67
2023/05/08 01:41:45;;;;;;;19.98;17.48;;;12.80;76.10;;;;;;5000853;28;20049;-67
2023/05/08 01:44:23;;;;;;;19.80;17.80;;;12.80;76.20;;;;;;5035897;28;20388;-67
2023/05/08 01:46:50;;;;;;;20.85;18.77;;;12.80;76.20;;;;;;5000410;28;20042;-67
2023/05/08 01:49:25;;;;;;;21.83;19.65;;;12.80;76.30;;;;;;5044507;28;20047;-67
2023/05/08 01:52:09;;;;;;;20.73;18.65;;;12.70;76.30;;;;;;5036089;28;20488;-67
2023/05/08 01:54:51;;;;;;;20.50;18.45;;;12.70;76.30;;;;;;5024866;28;20053;-67
2023/05/08 01:57:18;;;;;;;20.90;18.80;;;12.60;76.40;;;;;;5016531;28;20077;-67
2023/05/08 01:59:46;;;;;;;21.10;18.83;;;12.60;76.50;;;;;;5021091;28;20049;-67
2023/05/08 02:02:12;;;;;;;21.63;19.45;;;12.60;76.70;;;;;;5017582;28;20099;-67
2023/05/08 02:04:40;;;;;;;20.70;18.60;;;12.50;76.70;;;;;;5037900;28;20108;-67
2023/05/08 02:07:06;;;;;;;22.00;19.75;;;12.50;76.90;;;;;;5036056;28;20040;-67
2023/05/08 02:09:33;;;;;;;20.83;18.63;;;12.50;76.90;;;;;;5023218;28;20057;-67
2023/05/08 02:12:01;;;;;;;20.35;18.35;;;12.40;76.90;;;;;;5016131;28;20085;-67
2023/05/08 02:14:29;;;;;;;20.92;18.73;;;12.40;77.00;;;;;;5016418;28;20052;-67
2023/05/08 02:16:58;;;;;;;18.30;16.42;;;12.40;77.10;;;;;;5017565;28;20037;-67
2023/05/08 02:19:25;;;;;;;21.15;19.05;;;12.40;77.40;;;;;;5044483;28;20052;-67
2023/05/08 02:21:52;;;;;;;17.77;16.05;;;12.50;77.20;;;;;;5053119;28;20499;-67
2023/05/08 02:24:19;;;;;;;17.02;15.32;;;12.40;77.10;;;;;;5019506;28;20037;-67
2023/05/08 02:26:47;;;;;;;18.52;16.63;;;12.50;77.20;;;;;;5043951;28;20042;-67
2023/05/08 02:29:13;;;;;;;18.73;16.92;;;12.50;77.20;;;;;;5036992;28;20045;-67
2023/05/08 02:31:41;;;;;;;17.83;16.13;;;12.50;77.10;;;;;;5033585;28;20037;-67
2023/05/08 02:34:09;;;;;;;19.25;17.33;;;12.50;77.20;;;;;;5005247;28;20037;-67
2023/05/08 02:36:35;;;;;;;18.98;17.08;;;12.50;77.10;;;;;;5019548;28;20052;-67
2023/05/08 02:39:02;;;;;;;21.58;19.48;;;12.50;77.00;;;;;;5033499;28;20416;-67
2023/05/08 02:41:31;;;;;;;20.27;18.27;;;12.50;76.80;;;;;;5028030;28;20041;-67
2023/05/08 02:43:57;;;;;;;21.52;19.23;;;12.50;76.60;;;;;;5015020;28;20040;-67
2023/05/08 02:46:46;;;;;;;19.42;17.45;;;12.50;76.60;;;;;;5019074;28;20485;-67
2023/05/08 02:49:30;;;;;;;20.48;18.52;;;12.50;76.70;;;;;;5052852;28;20044;-67
2023/05/08 02:52:19;;;;;;;17.75;16.00;;;12.50;76.90;;;;;;5015482;28;20123;-67
2023/05/08 02:55:02;;;;;;;18.75;16.95;;;12.50;77.10;;;;;;5014699;28;20060;-67
2023/05/08 02:57:51;;;;;;;21.23;17.85;;;12.50;77.10;;;;;;5016418;28;20053;-67
2023/05/08 03:00:22;;;;;;;20.23;18.10;;;12.50;76.90;;;;;;5030163;28;20439;-67
2023/05/08 03:03:25;;;;;;;20.75;18.55;;;12.50;77.00;;;;;;5035512;28;20091;-67
2023/05/08 03:05:55;;;;;;;20.45;18.42;;;12.50;76.70;;;;;;4970293;28;20049;-67
2023/05/08 03:08:32;;;;;;;20.58;18.48;;;12.50;76.90;;;;;;5037826;28;20041;-67
2023/05/08 03:11:02;;;;;;;21.05;18.73;;;12.50;77.00;;;;;;5026306;28;20112;-67
2023/05/08 03:13:33;;;;;;;19.65;17.65;;;12.50;77.00;;;;;;5034912;28;20120;-67
2023/05/08 03:16:02;;;;;;;19.83;17.92;;;12.40;77.40;;;;;;5034266;28;20063;-66
2023/05/08 03:18:34;;;;;;;21.95;19.08;;;12.40;77.00;;;;;;5030667;28;20480;-66
2023/05/08 03:21:01;;;;;;;20.35;18.25;;;12.40;77.10;;;;;;5009651;28;20095;-66
2023/05/08 03:23:29;;;;;;;21.27;19.00;;;12.50;77.10;;;;;;5029711;28;20047;-66
2023/05/08 03:25:57;;;;;;;21.45;19.33;;;12.40;77.10;;;;;;5028376;28;20067;-67
2023/05/08 03:28:23;;;;;;;20.38;18.38;;;12.40;77.10;;;;;;5030571;28;20053;-66
2023/05/08 03:30:50;;;;;;;21.67;19.48;;;12.30;77.10;;;;;;5023424;28;20083;-67
2023/05/08 03:33:16;;;;;;;20.50;18.35;;;12.30;77.10;;;;;;5034888;28;20048;-66
2023/05/08 03:35:44;;;;;;;20.08;18.15;;;12.30;77.20;;;;;;5034801;28;20041;-66
2023/05/08 03:38:10;;;;;;;19.70;17.70;;;12.20;77.30;;;;;;5034759;28;20052;-66
2023/05/08 03:40:41;;;;;;;20.02;18.02;;;12.20;77.50;;;;;;5028690;28;20045;-66
2023/05/08 03:43:08;;;;;;;20.42;18.33;;;12.10;77.50;;;;;;5035091;28;20053;-67
2023/05/08 03:45:38;;;;;;;20.27;18.27;;;12.10;77.50;;;;;;5026783;28;20052;-66
2023/05/08 03:48:06;;;;;;;18.90;17.10;;;12.10;77.40;;;;;;5014943;28;20081;-67
2023/05/08 03:50:34;;;;;;;18.55;16.70;;;12.10;77.40;;;;;;5031234;28;20612;-66
2023/05/08 03:53:00;;;;;;;20.02;18.02;;;12.00;77.50;;;;;;5032567;28;20045;-66
2023/05/08 03:55:26;;;;;;;19.80;17.85;;;12.00;77.60;;;;;;5014816;28;20041;-67
2023/05/08 03:57:56;;;;;;;19.77;17.67;;;11.90;77.60;;;;;;5018170;28;20037;-66
2023/05/08 04:00:48;;;;;;;19.15;16.88;;;12.00;77.80;;;;;;5033964;28;20083;-67
2023/05/08 04:03:51;;;;;;;19.67;17.67;;;11.90;77.60;;;;;;5036380;28;20127;-67
2023/05/08 04:06:35;;;;;;;20.00;17.85;;;11.90;77.60;;;;;;5032043;28;20049;-67
2023/05/08 04:09:22;;;;;;;19.25;17.25;;;11.80;77.70;;;;;;5022444;28;20052;-67
2023/05/08 04:12:04;;;;;;;18.48;16.50;;;11.80;77.90;;;;;;5018256;28;20061;-67
2023/05/08 04:14:42;;;;;;;19.35;17.45;;;11.70;77.90;;;;;;5021286;28;20073;-67
2023/05/08 04:17:10;;;;;;;19.50;17.52;;;11.70;77.90;;;;;;5039385;28;20037;-67
2023/05/08 04:19:42;;;;;;;18.65;16.83;;;11.60;78.00;;;;;;5025554;28;20439;-67
2023/05/08 04:22:10;;;;;;;18.63;16.75;;;11.60;78.10;;;;;;5035970;28;20488;-67
2023/05/08 04:24:42;;;;;;;18.77;16.88;;;11.60;78.10;;;;;;5029489;28;20076;-67
2023/05/08 04:27:09;;;;;;;19.33;17.33;;;11.60;78.20;;;;;;5038075;28;20073;-67
2023/05/08 04:29:35;;;;;;;19.45;17.45;;;11.60;78.30;;;;;;5055701;28;20041;-67
2023/05/08 04:32:04;;;;;;;18.67;16.75;;;11.50;78.20;;;;;;5033518;28;20046;-67
2023/05/08 04:34:30;;;;;;;19.33;17.30;;;11.50;78.30;;;;;;5039770;28;20041;-67
2023/05/08 04:36:56;;;;;;;18.98;17.08;;;11.50;78.30;;;;;;5035734;28;20030;-67
2023/05/08 04:39:21;;;;;;;18.42;16.52;;;11.50;78.40;;;;;;5017876;28;20076;-67
2023/05/08 04:41:50;;;;;;;18.80;16.80;;;11.50;78.50;;;;;;5055189;28;20033;-67
2023/05/08 04:44:16;;;;;;;19.13;17.02;;;11.50;78.50;;;;;;5029480;28;20102;-67
2023/05/08 04:46:41;;;;;;;19.73;17.65;;;11.50;78.60;;;;;;5028732;28;20067;-67
2023/05/08 04:49:07;;;;;;;18.80;16.90;;;11.50;78.60;;;;;;5030062;28;20060;-67
2023/05/08 04:51:34;;;;;;;18.42;16.52;;;11.50;78.70;;;;;;5018030;28;20120;-67
2023/05/08 04:53:59;;;;;;;18.50;16.70;;;11.50;78.70;;;;;;5023011;28;20045;-67
2023/05/08 04:56:25;;;;;;;20.02;15.98;;;11.50;78.70;;;;;;5021197;28;20120;-67
2023/05/08 04:58:51;;;;;;;18.00;16.23;;;11.50;78.70;;;;;;5026777;28;20034;-67
2023/05/08 05:01:17;;;;;;;17.55;15.85;;;11.50;78.70;;;;;;5026776;28;20060;-67
2023/05/08 05:03:42;;;;;;;18.80;16.42;;;11.50;78.80;;;;;;5001167;28;20081;-67
2023/05/08 05:06:08;;;;;;;16.77;14.98;;;11.50;79.10;;;;;;5024498;28;20047;-67
2023/05/08 05:08:34;;;;;;;16.95;15.25;;;11.50;79.00;;;;;;5053466;28;20400;-67
2023/05/08 05:10:59;;;;;;;16.60;14.98;;;11.60;78.80;;;;;;5037069;28;20072;-67
2023/05/08 05:13:25;;;;;;;16.27;14.57;;;11.60;78.70;;;;;;5036982;28;20056;-67
2023/05/08 05:15:53;;;;;;;17.95;15.20;;;11.70;78.70;;;;;;5034537;28;20053;-67
2023/05/08 05:18:19;;;;;;;15.85;13.93;;;11.70;78.60;;;;;;5037068;28;20480;-67
2023/05/08 05:20:45;;;;;;;16.48;14.73;;;11.80;78.50;;;;;;5036612;28;20036;-67
2023/05/08 05:23:11;;;;;;;17.40;15.60;;;11.80;78.20;;;;;;5037060;28;20049;-67
2023/05/08 05:25:37;;;;;;;16.83;15.13;;;11.80;78.10;;;;;;5036481;28;20091;-67
2023/05/08 05:28:03;;;;;;;16.17;14.48;;;11.90;78.10;;;;;;5034690;28;20500;-67
2023/05/08 05:30:29;;;;;;;17.10;15.30;;;11.90;78.10;;;;;;5025188;28;20036;-67
2023/05/08 05:32:55;;;;;;;16.95;15.25;;;11.90;78.00;;;;;;5031113;28;20377;-67
2023/05/08 05:35:20;;;;;;;15.20;13.70;;;12.00;77.80;;;;;;5035419;28;20095;-67
2023/05/08 05:37:46;;;;;;;16.02;14.43;;;12.00;77.70;;;;;;5040130;28;20041;-67
2023/05/08 05:40:12;;;;;;;16.17;14.38;;;12.00;77.50;;;;;;5036271;28;20115;-67
2023/05/08 05:42:38;;;;;;;16.17;14.52;;;12.10;77.50;;;;;;5036588;28;20045;-67
2023/05/08 05:45:04;;;;;;;17.60;14.70;;;12.10;77.70;;;;;;5020035;28;20044;-67
2023/05/08 05:47:30;;;;;;;16.15;14.50;;;12.10;77.60;;;;;;5036431;28;20036;-72
2023/05/08 05:49:56;;;;;;;16.85;14.93;;;12.20;77.50;;;;;;5036275;28;20032;-72
2023/05/08 05:52:22;;;;;;;15.63;14.02;;;12.30;77.70;;;;;;5035570;28;20049;-73
2023/05/08 05:54:48;;;;;;;16.02;14.40;;;12.40;77.90;;;;;;5036459;28;20045;-73
2023/05/08 05:57:13;;;;;;;15.70;14.10;;;12.50;77.80;;;;;;5020159;28;20037;-72
2023/05/08 05:59:40;;;;;;;15.13;13.68;;;12.70;77.70;;;;;;5054150;28;20502;-73
2023/05/08 06:02:09;;;;;;;15.77;13.95;;;12.80;77.10;;;;;;5054131;28;20048;-73
2023/05/08 06:04:35;;;;;;;15.95;13.82;;;12.90;76.50;;;;;;5025788;28;20106;-73
2023/05/08 06:07:00;;;;;;;14.18;12.65;;;13.10;76.10;;;;;;5054053;28;20492;-72
2023/05/08 06:09:26;;;;;;;15.25;13.43;;;13.20;75.90;;;;;;5036402;28;20044;-72
2023/05/08 06:11:52;;;;;;;14.65;13.07;;;13.30;75.70;;;;;;5036024;28;20053;-72
2023/05/08 06:14:17;;;;;;;15.50;13.90;;;13.40;75.40;;;;;;5036093;28;20083;-72
2023/05/08 06:16:43;;;;;;;14.07;12.77;;;13.60;75.20;;;;;;5035403;28;20416;-72
2023/05/08 06:19:09;;;;;;;13.85;12.15;;;13.70;74.70;;;;;;5053480;28;20063;-72
2023/05/08 06:21:35;;;;;;;14.95;13.45;;;13.80;74.00;;;;;;5035883;28;20477;-72
2023/05/08 06:24:01;;;;;;;13.52;12.23;;;14.00;73.70;;;;;;5035711;28;20464;-72
2023/05/08 06:26:26;;;;;;;15.00;13.50;;;14.10;73.20;;;;;;5035742;28;20049;-73
2023/05/08 06:28:52;;;;;;;13.88;12.57;;;14.20;72.60;;;;;;5052904;28;20068;-73
2023/05/08 06:31:18;;;;;;;14.95;12.68;;;14.30;72.50;;;;;;5035686;28;20048;-73
2023/05/08 06:33:43;;;;;;;14.55;12.63;;;14.30;71.90;;;;;;5036892;28;20116;-73
2023/05/08 06:36:09;;;;;;;15.52;13.98;;;14.40;71.60;;;;;;5053297;28;20464;-72
2023/05/08 06:38:35;;;;;;;14.60;13.10;;;14.30;71.50;;;;;;5035700;28;20120;-74
2023/05/08 06:41:01;;;;;;;13.60;12.20;;;14.30;71.70;;;;;;5035511;28;20120;-72
2023/05/08 06:43:26;;;;;;;13.18;11.85;;;14.30;72.10;;;;;;5039721;28;20045;-72
2023/05/08 06:45:52;;;;;;;14.45;13.10;;;14.30;71.90;;;;;;5015695;28;20041;-72
2023/05/08 06:48:18;;;;;;;14.02;12.55;;;14.30;71.60;;;;;;5022540;28;20045;-72
2023/05/08 06:50:44;;;;;;;14.48;13.07;;;14.40;71.70;;;;;;5053305;28;20127;-73
2023/05/08 06:53:09;;;;;;;14.25;12.85;;;14.40;71.70;;;;;;5053277;28;20044;-73
2023/05/08 06:55:35;;;;;;;15.13;13.63;;;14.40;71.50;;;;;;5035237;28;20040;-72
2023/05/08 06:58:01;;;;;;;14.75;12.93;;;14.30;71.40;;;;;;5052919;28;20048;-73
2023/05/08 07:00:27;;;;;;;15.27;13.82;;;14.30;71.60;;;;;;5035054;28;20123;-73
2023/05/08 07:02:53;;;;;;;13.82;12.43;;;14.20;71.50;;;;;;5053040;28;20124;-76
2023/05/08 07:05:18;;;;;;;14.27;12.95;;;14.20;71.70;;;;;;5034982;28;20033;-74
2023/05/08 07:07:45;;;;;;;15.02;13.50;;;14.20;71.90;;;;;;5035687;28;20048;-75
2023/05/08 07:10:10;;;;;;;15.15;13.65;;;14.20;72.00;;;;;;5034732;28;20049;-75
2023/05/08 07:12:36;;;;;;;13.57;12.27;;;14.30;72.10;;;;;;5018590;28;20053;-74
2023/05/08 07:15:03;;;;;;;13.98;12.68;;;14.30;72.30;;;;;;5035438;28;20037;-73
2023/05/08 07:17:29;;;;;;;14.95;13.30;;;14.40;72.40;;;;;;5053126;28;20381;-75
2023/05/08 07:19:55;;;;;;;13.60;12.20;;;14.40;72.40;;;;;;5035458;28;20387;-76
2023/05/08 07:22:21;;;;;;;14.80;13.32;;;14.50;72.70;;;;;;5035407;28;20128;-76
2023/05/08 07:24:46;;;;;;;13.45;12.15;;;14.60;72.80;;;;;;5034986;28;20079;-76
2023/05/08 07:27:13;;;;;;;14.68;13.32;;;14.70;72.80;;;;;;5018509;28;20053;-76
2023/05/08 07:29:40;;;;;;;14.82;13.35;;;14.70;72.10;;;;;;5015544;28;20587;-75
2023/05/08 07:32:08;;;;;;;14.48;13.07;;;14.70;72.00;;;;;;5017964;28;20370;-75
2023/05/08 07:34:34;;;;;;;14.35;12.95;;;14.80;71.90;;;;;;5019622;28;20041;-75
2023/05/08 07:37:00;;;;;;;15.48;13.82;;;14.80;72.20;;;;;;5029801;28;20151;-75
2023/05/08 07:39:26;;;;;;;14.27;12.98;;;14.80;72.10;;;;;;5023036;28;20120;-75
2023/05/08 07:41:51;;;;;;;14.23;12.80;;;14.80;72.00;;;;;;5039302;28;20540;-76
2023/05/08 07:44:17;;;;;;;15.02;13.50;;;14.90;72.00;;;;;;5039024;28;20044;-76
2023/05/08 07:46:43;;;;;;;14.88;13.27;;;15.00;72.50;;;;;;5039222;28;20044;-76
2023/05/08 07:49:08;;;;;;;14.82;13.30;;;15.00;72.00;;;;;;5039022;28;20063;-76
2023/05/08 07:51:34;;;;;;;14.82;13.43;;;15.10;72.00;;;;;;5005511;28;20111;-75
2023/05/08 07:54:00;;;;;;;15.90;14.30;;;15.20;71.90;;;;;;5018962;28;20045;-76
2023/05/08 07:56:27;;;;;;;13.88;12.48;;;15.30;71.80;;;;;;5015014;28;20120;-75
2023/05/08 07:58:53;;;;;;;15.70;14.10;;;15.40;71.40;;;;;;5038847;28;20077;-76
2023/05/08 08:01:18;;;;;;;14.48;12.98;;;15.50;71.50;;;;;;5038643;28;20468;-76
2023/05/08 08:03:45;;;;;;;15.20;13.75;;;15.60;71.50;;;;;;5038118;28;20132;-76
2023/05/08 08:06:11;;;;;;;13.70;12.25;;;15.70;71.20;;;;;;5038954;28;20388;-76
2023/05/08 08:08:36;;;;;;;14.77;13.35;;;15.80;70.80;;;;;;5038296;28;20044;-76
2023/05/08 08:11:02;;;;;;;14.63;13.23;;;15.90;70.30;;;;;;5038579;28;20086;-76
2023/05/08 08:13:28;;;;;;;13.23;12.02;;;16.00;70.00;;;;;;5021686;28;20061;-76
2023/05/08 08:15:53;;;;;;;13.50;12.20;;;16.00;69.60;;;;;;5048766;28;20146;-75
2023/05/08 08:18:19;;;;;;;14.35;13.00;;;16.10;69.50;;;;;;5023406;28;20040;-76
2023/05/08 08:20:45;;;;;;;14.10;12.65;;;16.20;69.50;;;;;;5028863;28;20044;-76
2023/05/08 08:23:10;;;;;;;15.00;13.23;;;16.30;69.40;;;;;;5038413;28;20048;-75
2023/05/08 08:25:36;;;;;;;14.25;12.43;;;16.40;69.10;;;;;;5022018;28;20127;-75
2023/05/08 08:28:02;;;;;;;14.35;13.05;;;16.40;68.90;;;;;;5038320;28;20041;-75
2023/05/08 08:30:28;;;;;;;14.52;13.13;;;16.50;68.80;;;;;;5033726;28;20045;-75
2023/05/08 08:32:53;;;;;;;14.45;13.07;;;16.50;68.70;;;;;;5020432;28;20476;-75
2023/05/08 08:35:19;;;;;;;14.77;13.32;;;16.60;68.90;;;;;;5037936;28;20037;-75
2023/05/08 08:37:45;;;;;;;14.40;12.90;;;16.70;69.00;;;;;;5020613;28;20080;-75
2023/05/08 08:40:11;;;;;;;13.70;12.32;;;16.70;68.80;;;;;;5022369;28;20081;-75
2023/05/08 08:42:37;;;;;;;13.77;12.50;;;16.70;68.60;;;;;;5018229;28;20049;-74
2023/05/08 08:45:03;;;;;;;15.07;13.68;;;16.80;68.70;;;;;;5029522;28;20552;-75
2023/05/08 08:47:36;;;;;;;14.15;12.85;;;16.90;68.80;;;;;;5029841;28;20085;-75
2023/05/08 08:50:03;;;;;;;14.18;12.77;;;16.90;68.60;;;;;;5036033;28;20488;-75
2023/05/08 08:52:54;;;;;;;13.95;12.65;;;17.00;68.40;;;;;;5037481;28;20064;-75
2023/05/08 08:55:22;;;;;;;15.35;13.85;;;17.10;68.60;;;;;;5038032;28;20384;-75
2023/05/08 08:58:06;;;;;;;15.68;14.23;;;17.10;68.40;;;;;;5038113;28;20041;-75
2023/05/08 09:00:33;;;;;;;15.07;13.57;;;17.20;68.00;;;;;;5033458;28;20091;-75
2023/05/08 09:02:59;;;;;;;14.80;13.13;;;17.20;67.90;;;;;;5021400;28;20129;-75
2023/05/08 09:05:25;;;;;;;15.10;13.70;;;17.30;68.10;;;;;;5017778;28;20081;-75
2023/05/08 09:07:54;;;;;;;15.90;14.43;;;17.40;68.10;;;;;;5032794;28;20094;-75
2023/05/08 09:10:22;;;;;;;16.20;14.70;;;17.50;67.70;;;;;;5037479;28;20049;-75
2023/05/08 09:12:48;;;;;;;15.38;13.88;;;17.60;66.90;;;;;;5018175;28;20118;-75
2023/05/08 09:15:14;;;;;;;15.43;14.02;;;17.60;67.30;;;;;;5017753;28;20041;-75
2023/05/08 09:17:43;;;;;;;15.82;14.43;;;17.70;66.90;;;;;;5017888;28;20045;-75
2023/05/08 09:20:09;;;;;;;15.07;13.60;;;17.80;66.90;;;;;;5001149;28;20044;-75
2023/05/08 09:22:36;;;;;;;15.93;14.43;;;17.90;67.40;;;;;;5037606;28;20562;-76
2023/05/08 09:25:02;;;;;;;15.68;14.27;;;18.00;67.70;;;;;;5029720;28;20041;-75
2023/05/08 09:27:29;;;;;;;14.63;13.27;;;18.10;67.50;;;;;;5017069;28;20098;-76
2023/05/08 09:30:00;;;;;;;15.63;14.10;;;18.30;66.90;;;;;;5017177;28;20487;-72
2023/05/08 09:32:28;;;;;;;14.13;12.82;;;18.60;66.40;;;;;;5017298;28;20064;-72
2023/05/08 09:34:54;;;;;;;15.02;13.52;;;18.80;66.60;;;;;;5030496;28;20178;-72
2023/05/08 09:37:20;;;;;;;14.95;13.55;;;19.00;66.00;;;;;;5036876;28;20116;-75
2023/05/08 09:39:46;;;;;;;13.60;12.30;;;19.30;65.90;;;;;;5020017;28;20060;-75
2023/05/08 09:42:13;;;;;;;15.13;13.82;;;19.50;65.60;;;;;;5036778;28;20049;-72
2023/05/08 09:44:48;;;;;;;13.50;12.23;;;19.80;65.10;;;;;;5028345;28;20104;-74
2023/05/08 09:47:21;;;;;;;12.88;11.75;;;20.00;63.60;;;;;;5016928;28;20053;-76
2023/05/08 09:50:02;;;;;;;13.85;12.13;;;20.20;63.10;;;;;;5016772;28;20045;-77
2023/05/08 09:52:29;;;;;;;13.10;11.90;;;20.40;62.00;;;;;;5017018;28;20048;-77
2023/05/08 09:54:58;;;;;;;14.93;13.50;;;20.60;61.00;;;;;;5015979;28;20041;-76
2023/05/08 09:57:25;;;;;;;13.77;12.48;;;20.70;60.00;;;;;;5029607;28;20118;-75
2023/05/08 09:59:51;;;;;;;15.02;13.63;;;20.80;59.30;;;;;;5036649;28;20087;-76
2023/05/08 10:02:19;;;;;;;15.30;13.80;;;20.90;59.20;;;;;;5036889;28;20083;-76
2023/05/08 10:04:45;;;;;;;14.85;13.45;;;20.80;59.40;;;;;;5036648;28;20053;-76
2023/05/08 10:07:10;;;;;;;14.23;12.93;;;20.80;59.40;;;;;;5036676;28;20051;-76
2023/05/08 10:09:36;;;;;;;14.35;12.98;;;20.80;59.70;;;;;;5036249;28;20049;-75
2023/05/08 10:12:02;;;;;;;14.10;12.70;;;20.80;59.90;;;;;;5019879;28;20037;-75
2023/05/08 10:14:28;;;;;;;15.82;14.20;;;20.90;59.70;;;;;;5019608;28;20053;-74
2023/05/08 10:16:54;;;;;;;15.38;13.88;;;20.90;59.10;;;;;;5036566;28;20044;-75
2023/05/08 10:19:27;;;;;;;16.60;15.10;;;20.90;58.90;;;;;;5019053;28;20489;-74
2023/05/08 10:21:55;;;;;;;20.27;13.82;;;21.00;59.60;;;;;;5035954;28;20095;-71
2023/05/08 10:24:26;;;;;;;15.15;13.63;;;21.00;59.60;;;;;;5035845;28;20435;-70
2023/05/08 10:27:30;;;;;;;15.20;13.80;;;21.10;59.30;;;;;;5036004;28;20443;-71
2023/05/08 10:30:01;;;;;;;16.05;14.65;;;21.20;59.00;;;;;;4993416;28;20060;-71
2023/05/08 10:32:30;;;;;;;15.27;13.88;;;21.20;58.70;;;;;;5024116;28;20496;-71
2023/05/08 10:34:58;;;;;;;15.10;13.70;;;21.20;59.00;;;;;;5035411;28;20044;-71
2023/05/08 10:37:27;;;;;;;16.50;14.73;;;21.30;58.80;;;;;;5035610;28;20045;-71
2023/05/08 10:39:56;;;;;;;16.27;14.63;;;21.30;58.70;;;;;;5032143;28;20131;-72
2023/05/08 10:42:22;;;;;;;14.55;13.15;;;21.40;58.60;;;;;;5027481;28;20045;-72
2023/05/08 10:44:48;;;;;;;15.68;14.18;;;21.50;58.60;;;;;;5035576;28;20091;-69
2023/05/08 10:47:20;;;;;;;16.60;15.10;;;21.50;58.60;;;;;;5034649;28;20037;-69
2023/05/08 10:50:16;;;;;;;16.60;14.02;;;21.60;58.90;;;;;;5035307;28;20132;-69
2023/05/08 10:52:58;;;;;;;17.15;15.55;;;21.70;59.30;;;;;;5035431;28;20037;-70
2023/05/08 10:55:31;;;;;;;16.73;15.13;;;21.70;58.80;;;;;;5035263;28;20045;-70
2023/05/08 10:58:11;;;;;;;16.95;15.32;;;21.70;58.10;;;;;;5035366;28;20048;-71
2023/05/08 11:00:52;;;;;;;17.02;15.43;;;21.80;58.40;;;;;;5034601;28;20399;-71
2023/05/08 11:03:19;;;;;;;15.90;14.50;;;21.90;58.40;;;;;;5030509;28;20436;-67
2023/05/08 11:05:49;;;;;;;17.33;15.70;;;21.90;58.10;;;;;;5026046;28;20116;-67
2023/05/08 11:08:23;;;;;;;18.20;16.50;;;22.00;58.40;;;;;;5035338;28;20527;-67
2023/05/08 11:10:58;;;;;;;17.25;15.50;;;22.10;58.30;;;;;;5018660;28;20120;-67
2023/05/08 11:13:35;;;;;;;17.55;15.85;;;22.10;57.90;;;;;;5024718;28;20064;-67
2023/05/08 11:16:02;;;;;;;16.40;14.85;;;22.20;57.90;;;;;;5015317;28;20087;-67
2023/05/08 11:18:28;;;;;;;16.80;15.20;;;22.20;57.50;;;;;;5033016;28;20124;-67
2023/05/08 11:21:03;;;;;;;18.15;16.42;;;22.20;57.50;;;;;;5015192;28;20052;-67
2023/05/08 11:23:30;;;;;;;16.75;15.02;;;22.30;57.30;;;;;;5015436;28;20053;-67
2023/05/08 11:26:04;;;;;;;17.58;15.98;;;22.20;58.00;;;;;;5018955;28;20040;-68
2023/05/08 11:28:55;;;;;;;19.23;17.27;;;22.30;57.80;;;;;;5034929;28;20068;-67
2023/05/08 11:31:22;;;;;;;17.05;15.55;;;22.30;57.30;;;;;;5052918;28;20050;-67
2023/05/08 11:33:48;;;;;;;18.55;16.80;;;22.40;58.00;;;;;;5018466;28;20044;-68
2023/05/08 11:36:21;;;;;;;18.25;16.40;;;22.50;57.80;;;;;;5034709;28;20252;-67
2023/05/08 11:39:08;;;;;;;17.45;15.73;;;22.50;57.50;;;;;;5035096;28;20060;-67
2023/05/08 11:41:34;;;;;;;18.40;16.75;;;22.60;57.90;;;;;;5033307;28;20041;-67
2023/05/08 11:44:08;;;;;;;19.15;17.25;;;22.70;57.90;;;;;;5034847;28;20120;-67
2023/05/08 11:46:41;;;;;;;18.30;16.50;;;22.80;58.10;;;;;;5034884;28;20127;-67
2023/05/08 11:49:17;;;;;;;19.52;17.83;;;22.90;58.10;;;;;;5034959;28;20107;-67
2023/05/08 11:51:45;;;;;;;20.55;18.65;;;23.00;57.40;;;;;;5034498;28;20128;-67
2023/05/08 11:54:13;;;;;;;19.20;17.25;;;23.00;56.80;;;;;;5020056;28;20120;-67
2023/05/08 11:56:39;;;;;;;18.20;16.48;;;23.00;57.30;;;;;;5014964;28;20120;-67
2023/05/08 11:59:07;;;;;;;17.05;15.55;;;23.00;57.30;;;;;;5015209;28;20129;-67
2023/05/08 12:01:33;;;;;;;20.67;18.88;;;23.10;58.10;;;;;;5014822;28;20081;-67
2023/05/08 12:04:04;;;;;;;18.73;17.05;;;23.20;58.10;;;;;;5014873;28;20099;-67
2023/05/08 12:06:31;;;;;;;16.17;14.68;;;23.30;58.00;;;;;;5015353;28;21569;-71
2023/05/08 12:08:58;;;;;;;19.30;17.35;;;23.50;57.60;;;;;;5015043;28;20080;-73
2023/05/08 12:11:24;;;;;;;19.05;17.45;;;23.50;56.90;;;;;;5014613;28;20046;-69
2023/05/08 12:13:53;;;;;;;17.15;15.55;;;23.60;56.30;;;;;;5014878;28;20049;-72
2023/05/08 12:16:21;;;;;;;17.70;16.15;;;23.70;56.20;;;;;;5014799;28;20100;-72
2023/05/08 12:18:52;;;;;;;17.15;15.60;;;23.70;55.60;;;;;;5017622;28;20071;-69
2023/05/08 12:21:20;;;;;;;18.55;16.85;;;23.80;56.20;;;;;;5051225;28;20396;-69
2023/05/08 12:23:46;;;;;;;20.02;18.17;;;23.90;56.20;;;;;;5038107;28;20559;-68
2023/05/08 12:26:11;;;;;;;18.42;16.70;;;24.00;55.60;;;;;;5038418;28;20131;-68
2023/05/08 12:28:38;;;;;;;15.35;13.95;;;24.00;55.80;;;;;;5038320;28;20393;-72
2023/05/08 12:31:04;;;;;;;14.85;13.55;;;24.10;56.20;;;;;;5055805;28;20107;-72
2023/05/08 12:33:31;;;;;;;19.10;17.40;;;24.20;56.70;;;;;;5035245;28;20365;-72
2023/05/08 12:35:58;;;;;;;16.23;14.70;;;24.30;56.40;;;;;;5018100;28;20037;-72
2023/05/08 12:38:27;;;;;;;15.73;14.23;;;24.40;56.40;;;;;;5018465;28;20038;-68